Time;durP1;ratioP1;P1;durP2;ratioP2;P2;SDS_P1;SDS_P2;PMS_P1;PMS_P2;Temp;Humidity;BMP_temperature;BMP_pressure;BME280_temperature;BME280_humidity;BME280_pressure;Samples;Min_cycle;Max_cycle;Signal;HPM_P1;HPM_P2
2021/06/24 00:01:07;;;;;;;17.38;15.40;;;;;;;15.43;72.23;100050.91;4954082;28;20038;-68
2021/06/24 00:03:34;;;;;;;26.92;16.85;;;;;;;15.41;72.29;100049.31;4971799;28;20117;-68
2021/06/24 00:06:00;;;;;;;23.50;18.95;;;;;;;15.40;72.31;100047.56;4971629;28;20414;-69
2021/06/24 00:08:26;;;;;;;17.70;14.93;;;;;;;15.30;72.78;100052.63;4971558;28;20034;-66
2021/06/24 00:10:54;;;;;;;16.17;13.75;;;;;;;15.30;72.80;100054.44;4971628;28;20487;-69
2021/06/24 00:13:20;;;;;;;23.20;17.23;;;;;;;15.30;73.19;100046.47;4971460;28;20106;-67
2021/06/24 00:15:46;;;;;;;20.23;17.95;;;;;;;15.24;72.97;100045.91;4971001;28;20034;-68
2021/06/24 00:18:12;;;;;;;29.77;22.08;;;;;;;15.19;73.58;100037.41;4971381;28;20046;-69
2021/06/24 00:20:38;;;;;;;23.23;18.70;;;;;;;15.13;73.66;100040.44;4971826;28;20476;-70
2021/06/24 00:23:05;;;;;;;30.17;19.30;;;;;;;15.07;74.05;100038.19;4963554;28;20121;-67
2021/06/24 00:25:31;;;;;;;17.83;15.43;;;;;;;15.03;74.37;100039.31;4971081;28;20151;-68
2021/06/24 00:27:57;;;;;;;22.90;17.00;;;;;;;15.00;74.33;100043.03;4970934;28;20043;-67
2021/06/24 00:30:22;;;;;;;17.98;15.27;;;;;;;14.95;74.96;100042.47;4970953;28;20038;-70
2021/06/24 00:32:48;;;;;;;17.35;15.05;;;;;;;14.91;75.08;100035.63;4954195;28;20027;-69
2021/06/24 00:35:14;;;;;;;19.55;16.88;;;;;;;14.87;75.32;100043.91;4971549;28;20414;-67
2021/06/24 00:37:40;;;;;;;24.90;18.67;;;;;;;14.78;75.39;100045.34;4970859;28;20033;-65
2021/06/24 00:40:07;;;;;;;26.17;19.73;;;;;;;14.70;75.99;100047.63;4971118;28;20034;-67
2021/06/24 00:42:34;;;;;;;25.27;19.88;;;;;;;14.59;76.40;100048.25;4970953;28;20039;-68
2021/06/24 00:45:00;;;;;;;26.77;19.33;;;;;;;14.50;76.56;100054.13;4970724;28;20050;-70
2021/06/24 00:47:25;;;;;;;29.13;18.55;;;;;;;14.43;76.92;100058.94;4970610;28;20037;-66
2021/06/24 00:49:51;;;;;;;23.20;18.35;;;;;;;14.37;77.40;100054.00;4971067;28;20125;-69
2021/06/24 00:52:17;;;;;;;30.92;21.33;;;;;;;14.32;77.83;100048.13;4970512;28;20035;-67
2021/06/24 00:54:42;;;;;;;29.65;20.42;;;;;;;14.30;77.89;100050.00;4990399;28;20486;-68
2021/06/24 00:57:08;;;;;;;22.55;19.38;;;;;;;14.31;77.47;100051.72;4990508;28;20085;-65
2021/06/24 00:59:38;;;;;;;27.27;20.10;;;;;;;14.33;78.11;100052.50;4991505;28;20061;-68
2021/06/24 01:02:05;;;;;;;23.10;20.25;;;;;;;14.34;77.73;100055.03;4964810;28;20030;-67
2021/06/24 01:04:34;;;;;;;23.33;17.80;;;;;;;14.38;78.24;100055.72;4990371;28;20062;-69
2021/06/24 01:07:01;;;;;;;22.10;16.98;;;;;;;14.41;78.03;100041.41;4990525;28;20026;-66
2021/06/24 01:09:26;;;;;;;19.98;16.13;;;;;;;14.46;77.70;100049.94;4990849;28;20030;-69
2021/06/24 01:11:54;;;;;;;30.48;25.85;;;;;;;14.50;77.63;100046.16;4989958;28;20564;-70
2021/06/24 01:14:19;;;;;;;30.40;24.73;;;;;;;14.52;77.38;100052.22;4973376;28;20035;-70
2021/06/24 01:16:45;;;;;;;23.95;17.85;;;;;;;14.51;77.28;100046.06;4970297;28;20035;-69
2021/06/24 01:19:12;;;;;;;24.80;17.90;;;;;;;14.53;77.47;100035.34;4970597;28;20042;-69
2021/06/24 01:21:37;;;;;;;29.55;23.17;;;;;;;14.45;77.45;100043.78;4970776;28;20077;-69
2021/06/24 01:24:03;;;;;;;26.33;16.48;;;;;;;14.44;77.99;100043.88;4970929;28;20455;-69
2021/06/24 01:26:29;;;;;;;29.08;16.35;;;;;;;14.39;77.85;100034.38;4969775;28;20126;-67
2021/06/24 01:28:54;;;;;;;24.48;16.85;;;;;;;14.35;77.54;100040.84;4952472;28;20723;-69
2021/06/24 01:31:22;;;;;;;25.58;20.33;;;;;;;14.29;77.74;100043.84;4970748;28;20039;-69
2021/06/24 01:33:49;;;;;;;21.92;17.77;;;;;;;14.18;78.11;100039.22;4970108;28;20524;-69
2021/06/24 01:36:15;;;;;;;24.67;19.67;;;;;;;14.07;78.44;100040.78;4970451;28;20038;-69
2021/06/24 01:38:44;;;;;;;29.75;17.35;;;;;;;14.01;78.52;100043.81;4970037;28;20510;-70
2021/06/24 01:41:14;;;;;;;23.35;19.85;;;;;;;13.94;78.08;100040.69;4972929;28;20073;-69
2021/06/24 01:43:42;;;;;;;25.40;17.90;;;;;;;13.85;78.72;100033.25;4970643;28;20031;-70
2021/06/24 01:46:07;;;;;;;27.20;20.85;;;;;;;13.81;78.75;100037.03;4970498;28;20490;-71
2021/06/24 01:48:32;;;;;;;25.42;20.95;;;;;;;13.68;79.43;100037.75;4970318;28;20046;-70
2021/06/24 01:51:00;;;;;;;26.48;19.58;;;;;;;13.60;79.01;100036.50;4970398;28;20035;-69
2021/06/24 01:53:26;;;;;;;25.25;20.63;;;;;;;13.56;79.74;100033.19;4978199;28;20482;-68
2021/06/24 01:55:52;;;;;;;28.58;22.25;;;;;;;13.52;80.01;100029.00;4989448;28;20042;-70
2021/06/24 01:58:23;;;;;;;24.88;21.67;;;;;;;13.49;79.44;100027.38;4988864;28;20070;-68
2021/06/24 02:00:52;;;;;;;25.88;18.52;;;;;;;13.43;80.08;100027.69;4989670;28;20117;-70
2021/06/24 02:03:18;;;;;;;25.98;19.75;;;;;;;13.41;80.04;100023.44;4989568;28;20038;-70
2021/06/24 02:05:46;;;;;;;22.70;20.23;;;;;;;13.38;79.82;100019.16;4992610;28;20038;-70
2021/06/24 02:08:35;;;;;;;20.98;18.83;;;;;;;13.35;79.97;100014.06;4992562;28;20113;-67
2021/06/24 02:11:01;;;;;;;20.83;16.92;;;;;;;13.31;80.27;100007.22;4992783;28;20050;-70
2021/06/24 02:13:27;;;;;;;24.85;20.30;;;;;;;13.25;79.80;100013.69;4992654;28;20081;-69
2021/06/24 02:15:53;;;;;;;21.98;18.20;;;;;;;13.22;79.76;100011.22;4992904;28;20393;-69
2021/06/24 02:18:18;;;;;;;24.27;18.73;;;;;;;13.21;80.50;100011.31;4992474;28;20458;-69
2021/06/24 02:20:43;;;;;;;22.75;19.17;;;;;;;13.15;80.32;100004.56;4992319;28;20114;-70
2021/06/24 02:23:09;;;;;;;33.50;20.58;;;;;;;13.09;80.21;100003.13;4992786;28;20034;-69
2021/06/24 02:25:35;;;;;;;28.30;20.50;;;;;;;13.03;80.96;99998.16;4975631;28;20041;-69
2021/06/24 02:28:01;;;;;;;30.73;20.45;;;;;;;12.98;81.14;100000.22;4992372;28;20065;-69
2021/06/24 02:30:27;;;;;;;19.98;16.45;;;;;;;12.95;81.48;99997.75;4992649;28;20200;-70
2021/06/24 02:32:53;;;;;;;21.50;17.83;;;;;;;12.95;81.21;99997.75;4992556;28;20403;-69
2021/06/24 02:35:21;;;;;;;26.23;21.70;;;;;;;12.97;80.67;100000.28;4993507;28;20043;-68
2021/06/24 02:37:47;;;;;;;22.67;18.70;;;;;;;12.97;80.79;99995.88;4992190;28;20035;-70
2021/06/24 02:40:15;;;;;;;29.88;20.75;;;;;;;12.98;81.56;100000.22;4992318;28;20181;-69
2021/06/24 02:42:41;;;;;;;26.63;20.05;;;;;;;13.00;80.96;99997.50;4992341;28;20031;-71
2021/06/24 02:45:10;;;;;;;21.88;17.58;;;;;;;13.03;80.36;99997.31;4992673;28;20042;-69
2021/06/24 02:47:35;;;;;;;23.40;20.83;;;;;;;13.01;80.65;99994.75;4991949;28;20031;-67
2021/06/24 02:50:01;;;;;;;27.45;20.10;;;;;;;12.98;80.78;99997.56;4991766;28;20037;-69
2021/06/24 02:52:26;;;;;;;30.85;22.58;;;;;;;12.97;80.90;100002.94;4974887;28;20034;-69
2021/06/24 02:54:52;;;;;;;29.38;22.73;;;;;;;12.96;80.83;100004.75;4975936;28;20375;-68
2021/06/24 02:57:18;;;;;;;18.98;16.40;;;;;;;12.96;81.00;99998.59;4991786;28;20433;-68
2021/06/24 02:59:44;;;;;;;25.25;19.52;;;;;;;12.99;80.88;100001.06;4991935;28;20034;-69
2021/06/24 03:02:09;;;;;;;21.52;18.88;;;;;;;13.01;81.13;99999.19;4991948;28;20033;-69
2021/06/24 03:04:35;;;;;;;23.17;19.17;;;;;;;13.02;80.90;99992.94;4992386;28;20034;-70
2021/06/24 03:07:01;;;;;;;25.70;19.45;;;;;;;13.06;80.94;100002.44;4991521;28;20058;-69
2021/06/24 03:09:27;;;;;;;24.67;20.73;;;;;;;13.10;81.33;100003.97;4991861;28;20046;-70
2021/06/24 03:11:52;;;;;;;20.95;16.92;;;;;;;13.10;81.37;99996.03;4991916;28;20072;-68
2021/06/24 03:14:18;;;;;;;25.33;20.48;;;;;;;13.11;81.78;99987.16;4977867;28;20034;-68
2021/06/24 03:16:43;;;;;;;24.52;18.45;;;;;;;13.16;80.34;99992.19;4972041;28;20037;-69
2021/06/24 03:19:09;;;;;;;26.02;20.90;;;;;;;13.17;81.09;99993.88;4972587;28;20121;-70
2021/06/24 03:21:34;;;;;;;20.45;15.98;;;;;;;13.17;80.88;99991.22;4972706;28;20491;-70
2021/06/24 03:24:00;;;;;;;19.63;15.57;;;;;;;13.21;81.02;99995.41;4972042;28;20051;-71
2021/06/24 03:26:26;;;;;;;21.35;17.13;;;;;;;13.22;81.28;99997.16;4954876;28;20450;-71
2021/06/24 03:28:51;;;;;;;24.25;20.35;;;;;;;13.24;81.11;99995.22;4972139;28;20035;-71
2021/06/24 03:31:17;;;;;;;22.45;17.15;;;;;;;13.28;81.22;99996.81;4972005;28;20030;-70
2021/06/24 03:33:43;;;;;;;21.98;19.05;;;;;;;13.31;80.67;99991.34;4972017;28;20066;-68
2021/06/24 03:36:08;;;;;;;23.27;19.08;;;;;;;13.34;80.95;99996.47;4972106;28;20066;-69
2021/06/24 03:38:34;;;;;;;22.08;19.67;;;;;;;13.34;80.74;99988.53;4973018;28;20031;-70
2021/06/24 03:40:59;;;;;;;18.00;16.17;;;;;;;13.37;81.18;99990.16;4972901;28;20085;-70
2021/06/24 03:43:24;;;;;;;20.80;18.27;;;;;;;13.43;80.49;99992.44;4972320;28;20442;-69
2021/06/24 03:45:50;;;;;;;19.70;17.77;;;;;;;13.46;80.35;99994.88;4972486;28;20050;-70
2021/06/24 03:48:15;;;;;;;20.90;16.60;;;;;;;13.46;79.79;99993.13;4974410;28;20022;-69
2021/06/24 03:50:41;;;;;;;17.30;15.40;;;;;;;13.52;79.84;99994.56;4972428;28;20034;-68
2021/06/24 03:53:06;;;;;;;23.13;17.88;;;;;;;13.53;80.52;99985.66;4972307;28;20038;-70
2021/06/24 03:55:35;;;;;;;18.30;16.30;;;;;;;13.52;79.91;99979.50;4971968;28;20093;-71
2021/06/24 03:58:02;;;;;;;25.23;19.15;;;;;;;13.54;80.67;99979.44;4971301;28;20035;-69
2021/06/24 04:00:28;;;;;;;23.13;15.90;;;;;;;13.59;80.67;99981.81;4971599;28;20039;-70
2021/06/24 04:02:53;;;;;;;17.83;15.63;;;;;;;13.65;80.35;99982.28;4971824;28;20038;-69
2021/06/24 04:05:19;;;;;;;21.45;15.68;;;;;;;13.71;80.15;99981.09;4972056;28;20058;-71
2021/06/24 04:07:44;;;;;;;25.00;17.42;;;;;;;13.71;80.62;99983.75;4972080;28;20057;-70
2021/06/24 04:10:11;;;;;;;16.90;13.70;;;;;;;13.78;80.96;99985.06;4971675;28;20074;-70
2021/06/24 04:12:36;;;;;;;19.08;17.00;;;;;;;13.83;80.02;99974.19;4971819;28;20062;-71
2021/06/24 04:15:02;;;;;;;14.32;12.25;;;;;;;13.92;80.19;99984.25;4971583;28;20578;-70
2021/06/24 04:17:28;;;;;;;18.95;17.02;;;;;;;13.99;80.11;99972.34;4971304;28;20135;-70
2021/06/24 04:19:53;;;;;;;18.60;15.38;;;;;;;14.06;79.80;99973.66;4954260;28;20054;-70
2021/06/24 04:22:18;;;;;;;17.88;13.80;;;;;;;14.12;79.82;99967.97;4971367;28;20031;-69
2021/06/24 04:24:44;;;;;;;21.25;18.88;;;;;;;14.16;79.54;99966.00;4971279;28;20114;-69
2021/06/24 04:27:09;;;;;;;22.73;18.00;;;;;;;14.19;80.44;99968.47;4970395;28;20039;-70
2021/06/24 04:29:34;;;;;;;19.23;14.50;;;;;;;14.26;79.94;99971.59;4971196;28;20140;-73
2021/06/24 04:32:00;;;;;;;17.65;13.35;;;;;;;14.30;79.41;99971.31;4970940;28;20378;-68
2021/06/24 04:34:26;;;;;;;23.52;16.75;;;;;;;14.35;79.36;99963.94;4970982;28;20023;-69
2021/06/24 04:36:51;;;;;;;23.95;18.42;;;;;;;14.39;79.36;99967.22;4970542;28;20047;-69
2021/06/24 04:39:16;;;;;;;18.48;14.85;;;;;;;14.44;79.30;99973.09;4970521;28;20049;-69
2021/06/24 04:41:42;;;;;;;21.17;14.27;;;;;;;14.48;78.77;99966.66;4971244;28;20035;-70
2021/06/24 04:44:07;;;;;;;18.67;14.55;;;;;;;14.52;78.54;99975.28;4971560;28;20038;-70
2021/06/24 04:46:33;;;;;;;20.30;15.43;;;;;;;14.54;78.63;99974.25;4953396;28;20121;-67
2021/06/24 04:49:00;;;;;;;22.13;16.45;;;;;;;14.60;78.12;99971.25;4970847;28;20121;-70
2021/06/24 04:51:25;;;;;;;16.25;13.65;;;;;;;14.63;78.26;99975.50;4971912;28;20027;-70
2021/06/24 04:53:50;;;;;;;21.70;17.45;;;;;;;14.65;77.75;99980.72;4971464;28;20037;-70
2021/06/24 04:56:16;;;;;;;21.80;16.85;;;;;;;14.66;77.76;99972.63;4971097;28;20030;-71
2021/06/24 04:58:41;;;;;;;17.67;12.02;;;;;;;14.69;78.02;99967.13;4970746;28;20089;-70
2021/06/24 05:01:06;;;;;;;17.17;12.57;;;;;;;14.72;77.41;99974.91;4971199;28;20038;-71
2021/06/24 05:03:31;;;;;;;21.75;15.88;;;;;;;14.75;77.11;99977.38;4971247;28;20106;-68
2021/06/24 05:05:57;;;;;;;19.08;12.93;;;;;;;14.77;77.36;99969.31;4970928;28;20035;-68
2021/06/24 05:08:26;;;;;;;18.45;12.27;;;;;;;14.78;77.38;99979.81;4974264;28;20125;-70
2021/06/24 05:10:51;;;;;;;25.67;14.70;;;;;;;14.79;76.82;99962.97;4990401;28;20030;-68
2021/06/24 05:13:17;;;;;;;23.27;14.45;;;;;;;14.82;76.67;99965.41;4989565;28;20064;-69
2021/06/24 05:15:44;;;;;;;17.00;14.05;;;;;;;14.86;76.52;99962.56;4989152;28;20038;-68
2021/06/24 05:18:09;;;;;;;20.23;15.38;;;;;;;14.91;76.50;99963.13;4990166;28;20461;-69
2021/06/24 05:20:38;;;;;;;15.30;12.00;;;;;;;14.98;76.81;99957.31;4990625;28;20049;-68
2021/06/24 05:23:03;;;;;;;14.10;12.10;;;;;;;15.03;76.20;99959.66;4972892;28;20038;-68
2021/06/24 05:25:28;;;;;;;17.40;14.75;;;;;;;15.08;76.11;99967.34;4989813;28;20074;-67
2021/06/24 05:27:54;;;;;;;23.90;16.75;;;;;;;15.13;75.88;99949.28;4989793;28;20414;-68
2021/06/24 05:30:20;;;;;;;18.02;13.18;;;;;;;15.17;75.90;99961.44;4989661;28;20034;-68
2021/06/24 05:32:45;;;;;;;13.90;11.15;;;;;;;15.22;76.00;99960.16;4990022;28;20068;-68
2021/06/24 05:35:11;;;;;;;17.05;13.65;;;;;;;15.24;75.46;99962.75;4989943;28;20478;-68
2021/06/24 05:37:36;;;;;;;22.50;14.95;;;;;;;15.24;75.56;99962.75;4989729;28;20035;-68
2021/06/24 05:40:03;;;;;;;17.75;15.30;;;;;;;15.27;75.20;99948.41;4993128;28;20406;-68
2021/06/24 05:42:28;;;;;;;31.92;15.25;;;;;;;15.37;74.96;99953.00;4993221;28;20061;-69
2021/06/24 05:44:54;;;;;;;29.15;17.52;;;;;;;15.42;74.23;99947.38;4993432;28;20062;-68
2021/06/24 05:47:19;;;;;;;27.15;17.75;;;;;;;15.40;74.61;99946.63;4993096;28;20061;-70
2021/06/24 05:49:44;;;;;;;22.42;16.70;;;;;;;15.37;74.84;99947.69;4975672;28;20057;-66
2021/06/24 05:52:10;;;;;;;27.02;18.58;;;;;;;15.39;74.57;99943.13;4972584;28;20038;-68
2021/06/24 05:54:35;;;;;;;29.70;21.80;;;;;;;15.43;74.42;99951.72;4993547;28;20035;-67
2021/06/24 05:57:01;;;;;;;27.08;19.35;;;;;;;15.39;74.44;99947.59;4992878;28;20494;-67
2021/06/24 05:59:26;;;;;;;32.08;21.85;;;;;;;15.31;74.38;99948.09;4993028;28;20061;-71
2021/06/24 06:01:51;;;;;;;41.67;25.48;;;;;;;15.30;74.81;99951.69;4991982;28;20030;-66
2021/06/24 06:04:17;;;;;;;27.15;20.27;;;;;;;15.34;74.64;99953.22;4993135;28;20041;-66
2021/06/24 06:06:44;;;;;;;28.95;20.17;;;;;;;15.36;74.55;99955.78;4992762;28;20126;-67
2021/06/24 06:09:09;;;;;;;31.52;22.92;;;;;;;15.35;74.69;99954.91;4992906;28;20034;-69
2021/06/24 06:11:35;;;;;;;29.70;22.95;;;;;;;15.32;74.86;99960.41;4993099;28;20037;-67
2021/06/24 06:14:00;;;;;;;27.55;24.33;;;;;;;15.36;74.91;99956.63;4992914;28;20406;-67
2021/06/24 06:16:27;;;;;;;31.48;24.08;;;;;;;15.36;74.90;99967.25;4992614;28;20121;-68
2021/06/24 06:18:54;;;;;;;23.30;18.20;;;;;;;15.39;75.34;99961.72;4993107;28;20034;-68
2021/06/24 06:21:20;;;;;;;31.13;26.75;;;;;;;15.33;74.46;99967.41;4975444;28;20117;-67
2021/06/24 06:23:45;;;;;;;34.50;27.10;;;;;;;15.36;74.56;99955.78;4992693;28;20207;-67
2021/06/24 06:26:11;;;;;;;37.10;27.65;;;;;;;15.40;74.38;99959.91;4992605;28;20121;-68
2021/06/24 06:28:36;;;;;;;34.28;25.52;;;;;;;15.44;74.36;99959.59;4992428;28;20122;-68
2021/06/24 06:31:01;;;;;;;36.00;27.38;;;;;;;15.44;74.17;99950.78;4992524;28;20125;-68
2021/06/24 06:33:27;;;;;;;30.27;26.48;;;;;;;15.41;74.49;99959.81;4992715;28;20034;-68
2021/06/24 06:35:54;;;;;;;40.35;28.83;;;;;;;15.42;74.27;99965.97;4992646;28;20080;-70
2021/06/24 06:38:21;;;;;;;38.85;29.90;;;;;;;15.40;74.63;99967.88;4992270;28;20383;-69
2021/06/24 06:40:47;;;;;;;43.45;28.77;;;;;;;15.27;74.68;99973.16;4976301;28;20054;-68
2021/06/24 06:43:15;;;;;;;32.17;26.10;;;;;;;15.30;75.08;99967.63;4993572;28;20122;-67
2021/06/24 06:45:40;;;;;;;26.38;21.10;;;;;;;15.35;74.79;99964.69;4976880;28;20393;-69
2021/06/24 06:48:06;;;;;;;32.85;25.48;;;;;;;15.41;74.38;99964.28;4994886;28;20122;-70
2021/06/24 06:50:31;;;;;;;32.55;24.52;;;;;;;15.38;74.98;99969.78;4977396;28;20038;-68
2021/06/24 06:52:57;;;;;;;34.00;28.52;;;;;;;15.22;75.09;99973.44;4994358;28;20176;-66
2021/06/24 06:55:28;;;;;;;40.97;31.50;;;;;;;15.15;75.40;99968.66;4997069;28;20038;-69
2021/06/24 06:57:57;;;;;;;33.72;28.17;;;;;;;15.16;75.77;99957.06;4999682;28;20042;-69
2021/06/24 07:00:24;;;;;;;47.85;32.47;;;;;;;15.08;75.93;99960.22;4996739;28;20038;-68
2021/06/24 07:02:51;;;;;;;38.92;31.52;;;;;;;15.02;76.00;99957.97;4975660;28;20042;-69
2021/06/24 07:05:16;;;;;;;42.30;29.08;;;;;;;15.05;76.14;99956.94;4989766;28;20062;-70
2021/06/24 07:07:42;;;;;;;38.58;30.20;;;;;;;15.12;76.00;99956.41;4991782;28;20031;-68
2021/06/24 07:10:07;;;;;;;41.08;32.20;;;;;;;15.16;75.97;99962.38;4992827;28;20035;-69
2021/06/24 07:12:33;;;;;;;35.00;30.30;;;;;;;15.18;75.73;99952.50;4992364;28;20034;-70
2021/06/24 07:14:59;;;;;;;37.38;28.00;;;;;;;15.30;75.84;99948.19;4992435;28;20038;-68
2021/06/24 07:17:24;;;;;;;36.53;27.15;;;;;;;15.49;75.28;99947.81;4991820;28;20030;-69
2021/06/24 07:19:49;;;;;;;38.70;31.80;;;;;;;15.63;74.52;99950.41;4991682;28;20117;-68
2021/06/24 07:22:15;;;;;;;36.00;30.10;;;;;;;15.62;74.19;99954.84;4990419;28;20410;-68
2021/06/24 07:24:40;;;;;;;45.25;35.25;;;;;;;15.51;74.26;99953.91;4991622;28;20505;-68
2021/06/24 07:27:06;;;;;;;38.33;30.65;;;;;;;15.42;74.94;99960.66;4991873;28;20038;-69
2021/06/24 07:29:31;;;;;;;43.67;36.80;;;;;;;15.35;74.93;99957.56;4991459;28;20034;-69
2021/06/24 07:31:57;;;;;;;48.05;35.47;;;;;;;15.40;74.97;99951.94;4991605;28;20050;-69
2021/06/24 07:34:23;;;;;;;41.22;33.17;;;;;;;15.58;74.42;99955.16;4991533;28;20030;-69
2021/06/24 07:36:49;;;;;;;36.17;32.05;;;;;;;15.65;74.12;99954.66;4990621;28;20026;-67
2021/06/24 07:39:15;;;;;;;39.95;35.75;;;;;;;15.70;74.12;99956.19;4983618;28;20062;-69
2021/06/24 07:41:40;;;;;;;48.72;35.75;;;;;;;15.76;73.95;99953.13;4989810;28;20475;-68
2021/06/24 07:44:05;;;;;;;47.47;37.30;;;;;;;15.78;73.84;99954.72;4991036;28;20081;-68
2021/06/24 07:46:32;;;;;;;41.58;32.60;;;;;;;15.90;74.07;99961.00;4989822;28;20580;-69
2021/06/24 07:48:58;;;;;;;37.53;30.08;;;;;;;16.09;73.03;99948.13;4990511;28;20050;-68
2021/06/24 07:51:23;;;;;;;43.00;31.05;;;;;;;16.26;72.43;99949.59;4989682;28;20049;-67
2021/06/24 07:53:48;;;;;;;39.13;32.47;;;;;;;16.32;72.09;99951.00;4991633;28;20031;-67
2021/06/24 07:56:15;;;;;;;43.72;36.20;;;;;;;16.28;71.84;99953.00;4976843;28;20038;-69
2021/06/24 07:58:40;;;;;;;38.38;32.63;;;;;;;16.26;71.96;99957.56;4980647;28;20035;-66
2021/06/24 08:01:07;;;;;;;39.42;34.78;;;;;;;16.35;72.10;99950.78;4980034;28;20073;-65
2021/06/24 08:03:34;;;;;;;39.33;30.40;;;;;;;16.48;72.15;99946.28;4980508;28;20038;-66
2021/06/24 08:06:01;;;;;;;45.97;37.75;;;;;;;16.43;71.64;99951.06;4986719;28;20053;-67
2021/06/24 08:08:27;;;;;;;40.72;36.13;;;;;;;16.48;71.65;99940.94;4985652;28;20042;-66
2021/06/24 08:10:52;;;;;;;38.70;34.22;;;;;;;16.60;71.54;99946.38;4987754;28;20678;-66
2021/06/24 08:13:19;;;;;;;43.25;37.45;;;;;;;16.52;71.71;99941.59;4985830;28;20034;-68
2021/06/24 08:15:44;;;;;;;42.63;34.92;;;;;;;16.46;71.63;99947.34;4984619;28;20038;-71
2021/06/24 08:18:09;;;;;;;41.88;32.95;;;;;;;16.53;72.09;99946.78;4983189;28;20085;-66
2021/06/24 08:20:35;;;;;;;46.33;34.58;;;;;;;16.57;71.85;99950.09;4992137;28;20068;-65
2021/06/24 08:23:00;;;;;;;39.45;29.85;;;;;;;16.56;71.75;99944.88;4993562;28;20042;-67
2021/06/24 08:25:26;;;;;;;40.17;31.42;;;;;;;16.66;71.64;99943.25;4986856;28;20410;-67
2021/06/24 08:27:51;;;;;;;46.67;38.72;;;;;;;16.57;71.32;99944.78;4981137;28;20561;-67
2021/06/24 08:30:18;;;;;;;49.40;38.30;;;;;;;16.55;72.11;99940.53;4987084;28;20038;-68
2021/06/24 08:32:44;;;;;;;39.83;33.17;;;;;;;16.65;71.63;99944.22;4984365;28;20033;-68
2021/06/24 08:35:10;;;;;;;41.17;32.05;;;;;;;16.79;71.30;99945.94;5005027;28;20528;-68
2021/06/24 08:37:40;;;;;;;43.08;32.55;;;;;;;16.84;70.87;99943.78;4995569;28;20041;-67
2021/06/24 08:40:07;;;;;;;36.83;32.88;;;;;;;16.81;70.87;99955.50;4990014;28;20046;-68
2021/06/24 08:42:33;;;;;;;44.08;36.25;;;;;;;16.80;70.93;99952.94;4988056;28;20045;-68
2021/06/24 08:45:01;;;;;;;42.22;33.95;;;;;;;16.75;71.12;99953.25;4988112;28;20433;-69
2021/06/24 08:47:30;;;;;;;52.65;41.95;;;;;;;16.70;71.75;99966.03;4968346;28;20512;-69
2021/06/24 08:49:57;;;;;;;50.80;39.92;;;;;;;16.72;71.01;99956.97;4974563;28;20041;-69
2021/06/24 08:52:23;;;;;;;42.38;34.33;;;;;;;16.71;71.23;99957.94;4989082;28;20064;-68
2021/06/24 08:54:48;;;;;;;47.97;36.95;;;;;;;16.71;70.86;99965.06;5006250;28;20057;-69
2021/06/24 08:57:15;;;;;;;42.70;37.28;;;;;;;16.68;71.25;99962.63;4984321;28;20046;-67
2021/06/24 08:59:40;;;;;;;48.50;35.33;;;;;;;16.70;71.29;99974.03;4967135;28;20082;-70
2021/06/24 09:02:10;;;;;;;48.00;36.35;;;;;;;16.64;71.46;99966.50;4967725;28;20062;-73
2021/06/24 09:04:35;;;;;;;40.55;34.45;;;;;;;16.61;71.58;99967.53;4967812;28;20510;-72
2021/06/24 09:07:09;;;;;;;52.92;40.15;;;;;;;16.54;71.71;99968.97;4974245;28;20055;-73
2021/06/24 09:09:36;;;;;;;42.83;37.05;;;;;;;16.52;72.35;99977.03;4989305;28;20489;-71
2021/06/24 09:12:07;;;;;;;47.17;39.72;;;;;;;16.39;72.59;99975.34;4986829;28;20096;-73
2021/06/24 09:14:50;;;;;;;51.50;40.20;;;;;;;16.32;73.08;99980.25;4991391;28;20058;-74
2021/06/24 09:17:42;;;;;;;43.80;38.78;;;;;;;16.29;72.89;99981.34;4990368;28;20100;-73
2021/06/24 09:20:20;;;;;;;40.30;36.03;;;;;;;16.36;73.21;99975.56;4990442;28;20034;-70
2021/06/24 09:23:07;;;;;;;38.40;34.20;;;;;;;16.44;72.96;99979.41;4982051;28;20085;-72
2021/06/24 09:25:35;;;;;;;42.63;34.67;;;;;;;16.56;72.49;99979.47;4973996;28;20514;-70
2021/06/24 09:28:00;;;;;;;37.63;31.35;;;;;;;16.67;72.44;99982.25;4986935;28;20049;-73
2021/06/24 09:30:30;;;;;;;46.92;40.58;;;;;;;16.79;72.02;99977.88;4975730;28;20030;-74
2021/06/24 09:32:56;;;;;;;35.22;30.90;;;;;;;16.87;71.82;99972.84;4993567;28;20537;-71
2021/06/24 09:35:23;;;;;;;42.10;35.45;;;;;;;16.89;71.00;99971.78;4993896;28;20030;-73
2021/06/24 09:38:07;;;;;;;44.47;37.08;;;;;;;16.90;70.91;99968.13;4991880;28;20026;-74
2021/06/24 09:40:40;;;;;;;35.22;31.33;;;;;;;17.01;71.21;99969.19;4989107;28;20170;-70
2021/06/24 09:43:07;;;;;;;37.67;32.88;;;;;;;17.11;70.62;99967.56;4992577;28;20084;-71
2021/06/24 09:45:32;;;;;;;42.30;37.67;;;;;;;17.23;70.07;99965.78;4991951;28;20131;-72
2021/06/24 09:48:12;;;;;;;42.28;37.83;;;;;;;17.42;69.89;99970.59;4992298;28;20554;-74
2021/06/24 09:50:38;;;;;;;37.22;31.13;;;;;;;17.47;69.61;99961.28;4993386;28;20034;-72
2021/06/24 09:53:08;;;;;;;38.08;31.65;;;;;;;17.53;69.57;99960.81;4993565;28;20093;-73
2021/06/24 09:55:34;;;;;;;37.58;33.72;;;;;;;17.51;69.69;99961.91;4993645;28;20105;-70
2021/06/24 09:58:16;;;;;;;44.13;38.75;;;;;;;17.47;69.70;99960.44;4989701;28;20141;-72
2021/06/24 10:00:50;;;;;;;51.80;41.38;;;;;;;17.46;69.42;99959.59;5000866;28;20069;-71
2021/06/24 10:03:17;;;;;;;51.20;36.38;;;;;;;17.47;69.50;99963.94;5000773;28;20109;-73
2021/06/24 10:05:43;;;;;;;42.83;36.58;;;;;;;17.44;70.01;99950.00;4957831;28;20059;-73
2021/06/24 10:08:09;;;;;;;46.13;33.30;;;;;;;17.43;69.87;99953.66;4974808;28;20038;-71
2021/06/24 10:10:36;;;;;;;45.22;40.28;;;;;;;17.55;69.42;99963.41;4956782;28;20361;-72
2021/06/24 10:13:01;;;;;;;37.80;33.03;;;;;;;17.65;69.55;99952.88;4973835;28;20097;-73
2021/06/24 10:15:28;;;;;;;46.03;40.95;;;;;;;17.72;68.89;99948.75;4973963;28;20035;-71
2021/06/24 10:17:55;;;;;;;50.03;44.97;;;;;;;17.69;68.91;99951.66;4972609;28;20114;-72
2021/06/24 10:20:22;;;;;;;41.50;35.97;;;;;;;17.75;69.23;99948.53;4956184;28;20069;-71
2021/06/24 10:23:03;;;;;;;42.65;33.50;;;;;;;17.84;68.43;99947.84;4956014;28;20039;-71
2021/06/24 10:25:29;;;;;;;56.35;44.80;;;;;;;17.86;68.38;99950.41;4972390;28;20067;-73
2021/06/24 10:27:56;;;;;;;46.92;34.92;;;;;;;17.91;68.71;99948.22;4972913;28;20065;-71
2021/06/24 10:30:23;;;;;;;61.92;40.17;;;;;;;17.94;68.16;99948.00;4973304;28;20121;-70
2021/06/24 10:33:04;;;;;;;51.95;43.55;;;;;;;17.84;68.63;99947.00;4973574;28;20125;-73
2021/06/24 10:35:30;;;;;;;44.55;36.05;;;;;;;17.83;68.93;99946.16;4972909;28;20439;-73
2021/06/24 10:37:57;;;;;;;60.75;37.58;;;;;;;17.97;68.68;99943.28;4972624;28;20062;-71
2021/06/24 10:40:29;;;;;;;44.55;34.33;;;;;;;18.07;68.39;99951.41;4973007;28;20089;-70
2021/06/24 10:42:57;;;;;;;44.28;32.83;;;;;;;18.22;68.01;99941.38;4971963;28;20043;-73
2021/06/24 10:45:24;;;;;;;41.70;35.92;;;;;;;18.38;67.54;99947.16;4973311;28;20034;-72
2021/06/24 10:47:50;;;;;;;52.78;40.10;;;;;;;18.47;66.73;99942.94;4972134;28;20055;-72
2021/06/24 10:50:29;;;;;;;43.38;36.95;;;;;;;18.48;66.89;99941.94;4971638;28;20039;-71
2021/06/24 10:53:04;;;;;;;43.88;36.10;;;;;;;18.58;66.85;99948.28;4992891;28;20035;-72
2021/06/24 10:55:39;;;;;;;49.50;39.22;;;;;;;18.63;66.78;99945.22;4992208;28;20037;-70
2021/06/24 10:58:27;;;;;;;;;;;;;;;18.64;66.34;99944.25;4974506;28;20049;-71
2021/06/24 11:00:57;;;;;;;49.90;36.65;;;;;;;18.70;66.97;99937.56;4962152;28;19914;-71
2021/06/24 11:03:31;;;;;;;39.53;34.78;;;;;;;18.80;66.22;99935.88;4987588;28;20038;-74
2021/06/24 11:06:16;;;;;;;47.70;41.03;;;;;;;18.83;66.22;99938.31;4992432;28;20418;-72
2021/06/24 11:08:44;;;;;;;42.55;34.35;;;;;;;18.82;66.36;99934.78;4991705;28;20038;-73
2021/06/24 11:11:17;;;;;;;47.95;42.45;;;;;;;18.76;66.16;99937.13;4992493;28;20133;-73
2021/06/24 11:13:50;;;;;;;46.25;40.75;;;;;;;18.73;66.44;99938.19;4991575;28;20042;-70